createdAt,value
2019-06-15T00:01:36.655Z,23.00
2019-06-15T00:04:05.930Z,23.00
2019-06-15T00:06:34.873Z,22.90
2019-06-15T00:09:05.275Z,22.90
2019-06-15T00:11:34.217Z,22.80
2019-06-15T00:14:03.318Z,22.80
2019-06-15T00:16:32.258Z,22.70
2019-06-15T00:19:01.218Z,22.70
2019-06-15T00:21:30.177Z,22.80
2019-06-15T00:23:59.219Z,22.80
2019-06-15T00:26:28.706Z,22.80
2019-06-15T00:28:57.714Z,22.70
2019-06-15T00:31:26.606Z,22.80
2019-06-15T00:33:56.188Z,22.90
2019-06-15T00:36:25.128Z,22.90
2019-06-15T00:38:54.166Z,22.90
2019-06-15T00:41:23.104Z,23.00
2019-06-15T00:43:52.071Z,22.90
2019-06-15T00:46:21.074Z,22.90
2019-06-15T00:48:50.102Z,22.90
2019-06-15T00:51:19.116Z,22.90
2019-06-15T00:53:48.085Z,22.90
2019-06-15T00:56:17.107Z,22.90
2019-06-15T00:58:46.392Z,22.90
2019-06-15T01:01:16.160Z,22.90
2019-06-15T01:03:45.617Z,22.90
2019-06-15T01:06:14.572Z,23.00
2019-06-15T01:08:43.587Z,23.10
2019-06-15T01:11:12.664Z,23.20
2019-06-15T01:13:42.117Z,23.20
2019-06-15T01:16:11.442Z,23.20
2019-06-15T01:18:40.656Z,23.20
2019-06-15T01:21:09.724Z,23.20
2019-06-15T01:23:38.962Z,23.20
2019-06-15T01:26:08.010Z,23.20
2019-06-15T01:28:37.324Z,23.20
2019-06-15T01:31:06.388Z,23.10
2019-06-15T01:33:35.441Z,23.10
2019-06-15T01:36:04.625Z,23.10
2019-06-15T01:38:39.513Z,23.10
2019-06-15T01:41:08.487Z,23.10
2019-06-15T01:43:37.818Z,23.10
2019-06-15T01:46:06.858Z,23.10
2019-06-15T01:48:35.933Z,23.10
2019-06-15T01:51:05.121Z,23.20
2019-06-15T01:53:34.139Z,23.20
2019-06-15T01:56:03.280Z,23.20
2019-06-15T01:58:32.265Z,23.20
2019-06-15T02:01:01.644Z,23.20
2019-06-15T02:03:30.875Z,23.20
2019-06-15T02:05:59.937Z,23.30
2019-06-15T02:08:29.216Z,23.30
2019-06-15T02:10:58.264Z,23.40
2019-06-15T02:13:27.305Z,23.40
2019-06-15T02:15:56.373Z,23.40
2019-06-15T02:18:25.640Z,23.30
2019-06-15T02:20:54.682Z,23.20
2019-06-15T02:23:23.631Z,23.10
2019-06-15T02:25:52.553Z,23.10
2019-06-15T02:28:21.910Z,23.10
2019-06-15T02:30:51.151Z,23.10
2019-06-15T02:33:20.140Z,23.10
2019-06-15T02:35:49.516Z,23.00
2019-06-15T02:38:18.612Z,22.80
2019-06-15T02:40:47.778Z,22.60
2019-06-15T02:43:16.837Z,22.30
2019-06-15T02:45:46.144Z,22.00
2019-06-15T02:48:15.172Z,21.70
2019-06-15T02:50:44.648Z,21.60
2019-06-15T02:53:13.926Z,21.40
2019-06-15T02:55:50.482Z,21.30
2019-06-15T02:58:13.862Z,21.20
2019-06-15T03:00:53.103Z,21.10
2019-06-15T03:03:22.226Z,21.00
2019-06-15T03:05:51.359Z,21.00
2019-06-15T03:08:20.433Z,20.90
2019-06-15T03:10:49.572Z,20.90
2019-06-15T03:13:19.236Z,20.90
2019-06-15T03:15:49.059Z,21.00
2019-06-15T03:18:20.150Z,21.00
2019-06-15T03:20:49.516Z,21.10
2019-06-15T03:23:18.607Z,21.30
2019-06-15T03:25:47.649Z,21.40
2019-06-15T03:28:16.831Z,21.40
2019-06-15T03:30:45.797Z,21.40
2019-06-15T03:33:14.831Z,21.50
2019-06-15T03:35:43.858Z,21.60
2019-06-15T03:38:12.907Z,21.60
2019-06-15T03:40:42.652Z,21.70
2019-06-15T03:43:12.027Z,21.70
2019-06-15T03:45:41.187Z,21.70
2019-06-15T03:48:10.180Z,21.70
2019-06-15T03:50:39.229Z,21.70
2019-06-15T03:53:08.233Z,21.80
2019-06-15T03:55:41.923Z,21.80
2019-06-15T03:58:10.897Z,21.90
2019-06-15T04:00:48.867Z,22.00
2019-06-15T04:03:18.370Z,22.20
2019-06-15T04:05:47.724Z,22.30
2019-06-15T04:08:16.800Z,22.40
2019-06-15T04:10:45.754Z,22.40
2019-06-15T04:13:14.815Z,22.50
2019-06-15T04:15:43.780Z,22.50
2019-06-15T04:18:12.776Z,22.50
2019-06-15T04:20:41.979Z,22.60
2019-06-15T04:23:11.060Z,22.60
2019-06-15T04:25:40.004Z,22.70
2019-06-15T04:28:09.029Z,22.70
2019-06-15T04:30:38.089Z,22.70
2019-06-15T04:33:07.176Z,22.80
2019-06-15T04:35:36.241Z,22.90
2019-06-15T04:38:05.388Z,23.20
2019-06-15T04:40:34.624Z,23.40
2019-06-15T04:43:03.604Z,23.60
2019-06-15T04:45:32.656Z,23.50
2019-06-15T04:48:01.635Z,23.40
2019-06-15T04:50:30.941Z,23.30
2019-06-15T04:53:00.193Z,23.20
2019-06-15T04:55:29.217Z,23.20
2019-06-15T04:57:58.816Z,23.20
2019-06-15T05:00:27.877Z,23.30
2019-06-15T05:02:57.152Z,23.20
2019-06-15T05:05:26.183Z,23.30
2019-06-15T05:07:55.249Z,23.30
2019-06-15T05:10:24.224Z,23.40
2019-06-15T05:12:53.480Z,23.60
2019-06-15T05:15:23.088Z,23.70
2019-06-15T05:17:52.063Z,23.80
2019-06-15T05:20:21.110Z,23.90
2019-06-15T05:22:50.108Z,24.10
2019-06-15T05:25:19.069Z,24.10
2019-06-15T05:27:48.078Z,24.10
2019-06-15T05:30:17.452Z,24.20
2019-06-15T05:32:46.757Z,24.40
2019-06-15T05:35:15.874Z,24.70
2019-06-15T05:37:45.094Z,24.90
2019-06-15T05:40:14.958Z,25.00
2019-06-15T05:42:44.026Z,25.00
2019-06-15T05:45:13.587Z,25.00
2019-06-15T05:47:42.686Z,24.90
2019-06-15T05:50:13.262Z,24.90
2019-06-15T05:52:42.267Z,24.90
2019-06-15T05:55:11.708Z,24.90
2019-06-15T05:57:40.772Z,25.00
2019-06-15T06:00:10.593Z,25.10
2019-06-15T06:02:39.696Z,25.20
2019-06-15T06:05:08.836Z,25.40
2019-06-15T06:07:37.807Z,25.50
2019-06-15T06:10:08.760Z,25.70
2019-06-15T06:12:37.934Z,25.70
2019-06-15T06:15:07.286Z,25.70
2019-06-15T06:17:36.592Z,25.70
2019-06-15T06:20:06.912Z,25.60
2019-06-15T06:22:35.939Z,25.50
2019-06-15T06:25:05.849Z,25.50
2019-06-15T06:27:36.770Z,25.60
2019-06-15T06:30:06.860Z,25.70
2019-06-15T06:32:36.011Z,25.90
2019-06-15T06:35:05.512Z,26.00
2019-06-15T06:37:34.614Z,26.10
2019-06-15T06:40:05.234Z,26.30
2019-06-15T06:42:34.275Z,26.80
2019-06-15T06:45:03.368Z,27.30
2019-06-15T06:47:32.341Z,27.60
2019-06-15T06:50:01.330Z,27.70
2019-06-15T06:52:30.525Z,27.90
2019-06-15T06:54:59.528Z,28.00
2019-06-15T06:57:28.502Z,28.20
2019-06-15T06:59:57.480Z,28.20
2019-06-15T07:02:26.710Z,28.30
2019-06-15T07:04:55.693Z,28.70
2019-06-15T07:07:24.640Z,28.70
2019-06-15T07:09:53.754Z,28.90
2019-06-15T07:12:23.224Z,29.20
2019-06-15T07:14:52.497Z,29.30
2019-06-15T07:17:21.515Z,29.50
2019-06-15T07:19:50.542Z,29.50
2019-06-15T07:22:19.833Z,29.50
2019-06-15T07:24:48.902Z,29.30
2019-06-15T07:27:18.026Z,29.20
2019-06-15T07:29:47.117Z,29.40
2019-06-15T07:32:16.340Z,29.90
2019-06-15T07:34:45.346Z,29.90
2019-06-15T07:37:14.526Z,30.20
2019-06-15T07:39:43.517Z,30.90
2019-06-15T07:42:12.480Z,31.50
2019-06-15T07:44:41.452Z,31.70
2019-06-15T07:47:10.417Z,32.00
2019-06-15T07:49:39.415Z,32.20
2019-06-15T07:52:10.319Z,32.60
2019-06-15T07:54:39.431Z,32.70
2019-06-15T07:57:08.423Z,33.10
2019-06-15T07:59:37.468Z,33.30
2019-06-15T08:02:06.625Z,32.70
2019-06-15T08:04:35.853Z,32.10
2019-06-15T08:07:05.251Z,31.30
2019-06-15T08:09:34.678Z,30.80
2019-06-15T08:12:03.764Z,30.40
2019-06-15T08:14:32.822Z,29.90
2019-06-15T08:17:01.870Z,29.60
2019-06-15T08:19:30.913Z,29.80
2019-06-15T08:21:59.895Z,30.70
2019-06-15T08:24:28.945Z,32.30
2019-06-15T08:26:58.091Z,34.00
2019-06-15T08:29:27.052Z,35.90
2019-06-15T08:31:56.728Z,37.70
2019-06-15T08:34:25.701Z,38.60
2019-06-15T08:36:54.697Z,39.80
2019-06-15T08:39:23.919Z,40.80
2019-06-15T08:41:52.992Z,41.40
2019-06-15T08:44:21.983Z,41.80
2019-06-15T08:46:51.319Z,41.90
2019-06-15T08:49:20.517Z,41.90
2019-06-15T08:51:49.586Z,42.10
2019-06-15T08:54:18.548Z,42.20
2019-06-15T08:56:47.642Z,42.30
2019-06-15T08:59:16.681Z,42.60
2019-06-15T09:01:45.762Z,42.60
2019-06-15T09:04:14.741Z,42.00
2019-06-15T09:06:44.089Z,41.60
2019-06-15T09:09:15.947Z,41.60
2019-06-15T09:11:43.991Z,41.20
2019-06-15T09:14:13.148Z,41.00
2019-06-15T09:16:42.108Z,41.60
2019-06-15T09:19:11.147Z,41.60
2019-06-15T09:21:40.650Z,41.30
2019-06-15T09:24:09.672Z,41.80
2019-06-15T09:26:38.724Z,42.40
2019-06-15T09:29:11.561Z,42.40
2019-06-15T09:31:38.688Z,42.00
2019-06-15T09:34:18.508Z,42.00
2019-06-15T09:36:39.483Z,42.00
2019-06-15T09:39:08.637Z,42.20
2019-06-15T09:41:37.904Z,42.30
2019-06-15T09:44:06.928Z,43.10
2019-06-15T09:46:36.030Z,43.20
2019-06-15T09:49:05.127Z,42.90
2019-06-15T09:51:34.428Z,42.30
2019-06-15T09:54:03.597Z,42.20
2019-06-15T09:56:32.810Z,42.40
2019-06-15T09:59:01.925Z,42.60
2019-06-15T10:01:31.231Z,42.90
2019-06-15T10:04:00.443Z,42.80
2019-06-15T10:06:29.520Z,42.00
2019-06-15T10:08:58.825Z,41.60
2019-06-15T10:11:27.805Z,40.80
2019-06-15T10:13:56.771Z,39.80
2019-06-15T10:16:25.764Z,39.50
2019-06-15T10:18:55.006Z,39.50
2019-06-15T10:21:23.979Z,39.20
2019-06-15T10:23:53.041Z,38.40
2019-06-15T10:26:22.286Z,37.10
2019-06-15T10:28:53.411Z,36.10
2019-06-15T10:31:22.475Z,35.60
2019-06-15T10:33:51.590Z,35.30
2019-06-15T10:36:20.565Z,35.20
2019-06-15T10:38:49.840Z,35.10
2019-06-15T10:41:19.027Z,35.20
2019-06-15T10:43:47.995Z,34.90
2019-06-15T10:46:17.064Z,34.80
2019-06-15T10:48:46.105Z,34.70
2019-06-15T10:51:15.136Z,34.70
2019-06-15T10:53:44.124Z,34.70
2019-06-15T10:56:13.189Z,34.80
2019-06-15T10:58:42.428Z,34.80
2019-06-15T11:01:11.714Z,34.70
2019-06-15T11:03:40.818Z,34.70
2019-06-15T11:06:09.813Z,34.80
2019-06-15T11:08:38.788Z,34.90
2019-06-15T11:11:21.862Z,35.00
2019-06-15T11:13:51.396Z,35.00
2019-06-15T11:16:20.578Z,35.00
2019-06-15T11:18:49.641Z,35.30
2019-06-15T11:21:18.679Z,35.30
2019-06-15T11:23:47.856Z,35.40
2019-06-15T11:26:16.895Z,35.40
2019-06-15T11:28:46.148Z,35.60
2019-06-15T11:31:15.187Z,35.80
2019-06-15T11:33:44.267Z,36.20
2019-06-15T11:36:13.643Z,36.30
2019-06-15T11:38:43.220Z,36.60
2019-06-15T11:41:12.337Z,36.70
2019-06-15T11:43:41.350Z,36.70
2019-06-15T11:46:10.736Z,36.70
2019-06-15T11:48:39.960Z,36.60
2019-06-15T11:51:08.994Z,36.40
2019-06-15T11:53:38.020Z,36.10
2019-06-15T11:56:07.150Z,35.80
2019-06-15T11:58:36.359Z,35.80
2019-06-15T12:01:05.856Z,35.70
2019-06-15T12:03:34.894Z,35.30
2019-06-15T12:06:04.193Z,34.90
2019-06-15T12:08:33.728Z,34.50
2019-06-15T12:11:02.728Z,34.30
2019-06-15T12:13:31.761Z,34.30
2019-06-15T12:16:01.275Z,34.50
2019-06-15T12:18:30.407Z,34.40
2019-06-15T12:20:59.428Z,34.30
2019-06-15T12:23:28.493Z,34.00
2019-06-15T12:25:57.524Z,33.80
2019-06-15T12:28:27.152Z,33.90
2019-06-15T12:30:56.463Z,34.00
2019-06-15T12:33:25.442Z,34.50
2019-06-15T12:35:54.427Z,35.00
2019-06-15T12:38:23.665Z,34.90
2019-06-15T12:40:52.673Z,34.80
2019-06-15T12:43:21.672Z,34.90
2019-06-15T12:45:50.698Z,35.10
2019-06-15T12:48:19.821Z,35.20
2019-06-15T12:50:48.863Z,34.80
2019-06-15T12:53:18.094Z,34.50
2019-06-15T12:55:47.379Z,34.10
2019-06-15T12:58:16.457Z,34.00
2019-06-15T13:00:45.414Z,34.10
2019-06-15T13:03:14.385Z,34.50
2019-06-15T13:05:43.587Z,34.60
2019-06-15T13:08:13.025Z,34.50
2019-06-15T13:10:42.120Z,34.60
2019-06-15T13:13:11.264Z,34.80
2019-06-15T13:15:40.463Z,34.50
2019-06-15T13:18:10.088Z,34.20
2019-06-15T13:20:39.123Z,34.00
2019-06-15T13:23:08.167Z,33.90
2019-06-15T13:25:37.194Z,34.00
2019-06-15T13:28:06.817Z,34.10
2019-06-15T13:30:35.832Z,34.10
2019-06-15T13:33:05.117Z,33.90
2019-06-15T13:35:34.165Z,33.60
2019-06-15T13:38:03.127Z,33.20
2019-06-15T13:40:32.126Z,33.10
2019-06-15T13:43:01.078Z,33.00
2019-06-15T13:45:30.102Z,32.80
2019-06-15T13:47:59.081Z,32.80
2019-06-15T13:50:28.391Z,32.80
2019-06-15T13:52:57.353Z,32.90
2019-06-15T13:55:26.747Z,33.00
2019-06-15T13:57:55.782Z,32.90
2019-06-15T14:00:24.922Z,32.90
2019-06-15T14:02:53.900Z,32.90
2019-06-15T14:05:22.904Z,32.90
2019-06-15T14:07:51.860Z,32.80
2019-06-15T14:10:21.098Z,32.80
2019-06-15T14:12:51.067Z,32.90
2019-06-15T14:15:20.436Z,33.10
2019-06-15T14:17:49.490Z,33.20
2019-06-15T14:20:18.540Z,33.10
2019-06-15T14:22:47.507Z,33.10
2019-06-15T14:25:16.897Z,33.20
2019-06-15T14:27:45.884Z,33.10
2019-06-15T14:30:16.645Z,32.90
2019-06-15T14:32:45.764Z,32.80
2019-06-15T14:35:14.946Z,32.60
2019-06-15T14:37:43.959Z,32.50
2019-06-15T14:40:14.114Z,32.40
2019-06-15T14:42:43.137Z,32.40
2019-06-15T14:45:12.707Z,32.50
2019-06-15T14:47:41.742Z,32.50
2019-06-15T14:50:10.979Z,32.50
2019-06-15T14:52:40.327Z,32.50
2019-06-15T14:55:09.740Z,32.40
2019-06-15T14:57:38.780Z,32.30
2019-06-15T15:00:09.061Z,32.30
2019-06-15T15:02:38.655Z,32.20
2019-06-15T15:05:07.927Z,32.20
2019-06-15T15:07:37.317Z,32.10
2019-06-15T15:10:08.195Z,32.00
2019-06-15T15:12:37.315Z,32.00
2019-06-15T15:15:07.683Z,32.00
2019-06-15T15:17:37.365Z,32.00
2019-06-15T15:20:07.568Z,32.00
2019-06-15T15:22:37.272Z,32.00
2019-06-15T15:25:06.642Z,31.90
2019-06-15T15:27:37.511Z,32.00
2019-06-15T15:30:07.256Z,31.90
2019-06-15T15:32:36.982Z,31.90
2019-06-15T15:35:07.656Z,31.80
2019-06-15T15:37:37.296Z,31.60
2019-06-15T15:40:07.414Z,31.60
2019-06-15T15:42:37.225Z,31.50
2019-06-15T15:45:07.406Z,31.20
2019-06-15T15:47:37.043Z,31.00
2019-06-15T15:50:07.014Z,31.00
2019-06-15T15:52:37.330Z,31.00
2019-06-15T15:55:06.909Z,31.10
2019-06-15T15:57:36.427Z,31.30
2019-06-15T16:00:07.431Z,31.20
2019-06-15T16:02:47.492Z,31.10
2019-06-15T16:05:07.684Z,30.90
2019-06-15T16:07:37.175Z,30.70
2019-06-15T16:10:06.595Z,30.60
2019-06-15T16:12:36.399Z,30.50
2019-06-15T16:15:07.249Z,30.50
2019-06-15T16:17:37.423Z,30.30
2019-06-15T16:20:11.210Z,30.10
2019-06-15T16:22:40.299Z,30.10
2019-06-15T16:25:09.261Z,29.90
2019-06-15T16:27:38.360Z,29.70
2019-06-15T16:30:07.745Z,29.50
2019-06-15T16:32:37.269Z,29.30
2019-06-15T16:35:06.937Z,29.30
2019-06-15T16:37:36.069Z,29.30
2019-06-15T16:40:05.497Z,29.10
2019-06-15T16:42:36.575Z,28.80
2019-06-15T16:45:06.878Z,28.70
2019-06-15T16:47:36.481Z,28.60
2019-06-15T16:50:06.986Z,28.70
2019-06-15T16:52:36.536Z,28.70
2019-06-15T16:55:09.894Z,28.60
2019-06-15T16:57:37.765Z,28.50
2019-06-15T17:00:11.895Z,28.40
2019-06-15T17:02:40.959Z,28.40
2019-06-15T17:05:10.617Z,28.50
2019-06-15T17:07:39.941Z,28.60
2019-06-15T17:10:09.468Z,28.60
2019-06-15T17:12:38.714Z,28.50
2019-06-15T17:15:07.811Z,28.40
2019-06-15T17:17:36.975Z,28.30
2019-06-15T17:20:06.997Z,28.20
2019-06-15T17:22:37.826Z,28.10
2019-06-15T17:25:07.758Z,28.10
2019-06-15T17:27:37.657Z,28.10
2019-06-15T17:30:08.535Z,28.00
2019-06-15T17:32:37.592Z,27.90
2019-06-15T17:35:06.676Z,27.80
2019-06-15T17:37:36.394Z,27.60
2019-06-15T17:40:06.018Z,27.60
2019-06-15T17:42:36.908Z,27.40
2019-06-15T17:45:06.686Z,27.30
2019-06-15T17:47:36.208Z,27.20
2019-06-15T17:50:07.515Z,26.90
2019-06-15T17:52:36.931Z,26.80
2019-06-15T17:55:07.191Z,26.80
2019-06-15T17:57:36.668Z,26.80
2019-06-15T18:00:07.322Z,26.80
2019-06-15T18:02:38.326Z,26.80
2019-06-15T18:05:07.995Z,26.70
2019-06-15T18:07:37.389Z,26.60
2019-06-15T18:10:07.858Z,26.50
2019-06-15T18:12:36.899Z,26.50
2019-06-15T18:15:07.614Z,26.30
2019-06-15T18:17:37.108Z,26.30
2019-06-15T18:20:06.956Z,26.20
2019-06-15T18:22:36.484Z,26.10
2019-06-15T18:25:06.490Z,26.00
2019-06-15T18:27:37.348Z,26.10
2019-06-15T18:30:06.788Z,26.00
2019-06-15T18:32:37.928Z,25.90
2019-06-15T18:35:07.102Z,25.90
2019-06-15T18:37:37.070Z,25.90
2019-06-15T18:40:06.764Z,25.80
2019-06-15T18:42:36.892Z,25.60
2019-06-15T18:45:06.979Z,25.50
2019-06-15T18:47:36.711Z,25.40
2019-06-15T18:50:07.584Z,25.40
2019-06-15T18:52:37.863Z,25.40
2019-06-15T18:55:07.499Z,25.30
2019-06-15T18:57:37.223Z,25.20
2019-06-15T19:00:07.486Z,25.10
2019-06-15T19:02:36.655Z,25.00
2019-06-15T19:05:07.518Z,24.90
2019-06-15T19:07:37.671Z,24.80
2019-06-15T19:10:07.412Z,24.80
2019-06-15T19:12:37.472Z,24.70
2019-06-15T19:15:07.323Z,24.60
2019-06-15T19:17:37.183Z,24.50
2019-06-15T19:20:06.766Z,24.40
2019-06-15T19:22:36.120Z,24.20
2019-06-15T19:25:05.880Z,24.10
2019-06-15T19:27:36.630Z,24.00
2019-06-15T19:30:05.950Z,24.00
2019-06-15T19:32:36.804Z,23.90
2019-06-15T19:35:05.869Z,24.00
2019-06-15T19:37:37.075Z,23.90
2019-06-15T19:40:07.286Z,23.80
2019-06-15T19:42:36.980Z,23.70
2019-06-15T19:45:10.109Z,23.70
2019-06-15T19:47:37.863Z,23.70
2019-06-15T19:50:10.039Z,23.60
2019-06-15T19:52:38.176Z,23.60
2019-06-15T19:55:07.698Z,23.50
2019-06-15T19:57:36.834Z,23.20
2019-06-15T20:00:06.784Z,23.00
2019-06-15T20:02:36.531Z,22.80
2019-06-15T20:05:06.886Z,22.70
2019-06-15T20:07:36.790Z,22.50
2019-06-15T20:10:10.607Z,22.50
2019-06-15T20:12:38.158Z,22.30
2019-06-15T20:15:07.817Z,22.20
2019-06-15T20:17:36.966Z,22.20
2019-06-15T20:20:07.619Z,22.20
2019-06-15T20:22:37.224Z,22.00
2019-06-15T20:25:07.087Z,22.00
2019-06-15T20:27:37.729Z,21.90
2019-06-15T20:30:08.205Z,21.70
2019-06-15T20:32:37.436Z,21.70
2019-06-15T20:35:17.010Z,21.50
2019-06-15T20:37:38.160Z,21.50
2019-06-15T20:40:08.128Z,21.40
2019-06-15T20:42:37.243Z,21.40
2019-06-15T20:45:06.989Z,21.40
2019-06-15T20:47:37.242Z,21.40
2019-06-15T20:50:07.140Z,21.40
2019-06-15T20:52:36.827Z,21.60
2019-06-15T20:55:06.751Z,21.80
2019-06-15T20:57:35.808Z,21.90
2019-06-15T21:00:06.205Z,21.90
2019-06-15T21:02:36.207Z,21.90
2019-06-15T21:05:07.075Z,21.90
2019-06-15T21:07:36.413Z,22.00
2019-06-15T21:10:07.082Z,22.10
2019-06-15T21:12:37.614Z,22.00
2019-06-15T21:15:07.555Z,22.00
2019-06-15T21:17:37.183Z,22.00
2019-06-15T21:20:06.923Z,22.00
2019-06-15T21:22:35.957Z,22.00
2019-06-15T21:25:06.796Z,22.00
2019-06-15T21:27:36.871Z,21.90
2019-06-15T21:30:06.937Z,21.90
2019-06-15T21:32:37.021Z,21.90
2019-06-15T21:35:06.830Z,21.90
2019-06-15T21:37:37.106Z,21.90
2019-06-15T21:40:06.677Z,21.90
2019-06-15T21:42:36.311Z,21.80
2019-06-15T21:45:07.549Z,21.80
2019-06-15T21:47:37.390Z,21.80
2019-06-15T21:50:07.027Z,21.60
2019-06-15T21:52:36.463Z,21.60
2019-06-15T21:55:06.992Z,21.50
2019-06-15T21:57:36.721Z,21.40
2019-06-15T22:00:11.704Z,21.40
2019-06-15T22:02:40.809Z,21.30
2019-06-15T22:05:10.627Z,21.40
2019-06-15T22:07:39.758Z,21.30
2019-06-15T22:10:10.600Z,21.20
2019-06-15T22:12:39.977Z,21.10
2019-06-15T22:15:09.514Z,21.00
2019-06-15T22:17:38.899Z,20.90
2019-06-15T22:20:09.045Z,20.90
2019-06-15T22:22:38.112Z,20.80
2019-06-15T22:25:07.908Z,20.90
2019-06-15T22:27:37.321Z,20.80
2019-06-15T22:30:07.499Z,20.90
2019-06-15T22:32:37.513Z,20.90
2019-06-15T22:35:07.219Z,20.80
2019-06-15T22:37:36.380Z,20.60
2019-06-15T22:40:07.677Z,20.60
2019-06-15T22:42:36.669Z,20.60
2019-06-15T22:45:06.687Z,20.60
2019-06-15T22:47:36.251Z,20.50
2019-06-15T22:50:06.937Z,20.40
2019-06-15T22:52:36.576Z,20.50
2019-06-15T22:55:06.237Z,20.40
2019-06-15T22:57:37.064Z,20.40
2019-06-15T23:00:07.760Z,20.40
2019-06-15T23:02:37.209Z,20.30
2019-06-15T23:05:07.447Z,20.20
2019-06-15T23:07:36.625Z,20.10
2019-06-15T23:10:07.102Z,20.00
2019-06-15T23:12:37.275Z,19.90
2019-06-15T23:15:07.308Z,19.80
2019-06-15T23:17:37.398Z,19.90
2019-06-15T23:20:06.936Z,19.90
2019-06-15T23:22:35.980Z,19.90
2019-06-15T23:25:06.161Z,19.80
2019-06-15T23:27:35.753Z,19.80
2019-06-15T23:30:06.819Z,19.80
2019-06-15T23:32:36.242Z,19.60
2019-06-15T23:35:06.463Z,19.60
2019-06-15T23:37:37.576Z,19.50
2019-06-15T23:40:21.452Z,19.50
2019-06-15T23:42:51.177Z,19.40
2019-06-15T23:45:21.138Z,19.30
2019-06-15T23:47:50.304Z,19.30
2019-06-15T23:50:20.022Z,19.30
2019-06-15T23:52:49.673Z,19.30
2019-06-15T23:55:19.283Z,19.20
2019-06-15T23:57:48.815Z,19.10
